Saint Pierre, St. Pierre

1:28 PM PMDT on October 22, 2014 (GMT -0200)
Saint Pierre | Change Station
CLOSE
Current Station
Airport
Location: Saint Pierre,
Elevation: 26 ft
Nearby Weather Stations

Elev 26 ft 46.76 °N, 56.17 °W | Updated 28 minutes ago

Scattered Clouds
Scattered Clouds
50 °F
Feels Like 50 °F
N
7
Wind Variable Wind from East

Today
High -- | Low -- °F
--% Chance of Precip.
Yesterday
High -- | Low -- °F
Precip. -- in
8:12 AM 6:45 PM
Waning Crescent, 2% visible
Pressure 30.45 in
Visibility 6.2 miles
Clouds Mostly Cloudy 2600 ft
Scattered Clouds 23000 ft
Dew Point 43 °F
Humidity 76%
Rainfall 0.00 in
Snow Depth Not available.
UV 3 out of 12
Pollen Not available.
Air Quality Not available.
Flu Activity Not available.
METAR LFVP 221500Z 09006KT 9999 BKN026 SCT230 10/06 Q1031 NOSIG

More Conditions Fewer Conditions

Pressure 30.45 in
Visibility 6.2 miles
Clouds Mostly Cloudy 2600 ft
Scattered Clouds 23000 ft
Dew Point 43 °F
Humidity 76%
Rainfall 0.00 in
Snow Depth Not available.
UV 3 out of 12
Pollen Not available.
Air Quality Not available.
Flu Activity Not available.
METAR LFVP 221500Z 09006KT 9999 BKN026 SCT230 10/06 Q1031 NOSIG

More Conditions Fewer Conditions

10-Day Weather Forecast

Almanac

Astronomy

Oct. 22, 2014 Rise Set
Actual Time 8:12 AM PMDT 6:45 PM PMDT
Civil Twilight 7:41 AM PMDT 7:16 PM PMDT
Nautical Twilight 7:05 AM PMDT 7:51 PM PMDT
Astronomical Twilight 6:30 AM PMDT 8:26 PM PMDT
Moon 6:43 AM PMDT 6:12 PM PMDT
Length of Visible Light 11h 34m
Length of Day
10h 33m
Tomorrow will be 3m 9s shorter.
Waning Crescent, 2% of the Moon is Illuminated
Today
Waning Crescent
Oct 23
New
Oct 30
First Quarter
Nov 6
Full
Nov 14
Last Quarter

Today's Extremes

Country Highs Country Lows

Community

WunderPhotos

Upload Photos

1,763,949 photos uploaded!

Nearby

Snow Depth

Not available.

Earthquake Activity

City Distance Mag. Time & Date
No recent earthquake activity has been reported nearby.
Minimum magnitude displayed is 2.5.

Coastal Water Temperatures

Place Temperature
No Stations Reporting

Nearby Weather Stations